ETNL/RLG METAR and TAF weather

Enter ICAO airport designator
Station Type Date Time Source
ETNL METAR 2021/04/17 02:20 UTC NOAA

ETNL 170220Z 33005KT 9999 FEW060 BKN080 06/01 Q1023 BLU


Station Type Date Time Source
ETNL Decoded METAR 2021/04/17 02:20 UTC NOAA

Laage, Germany (ETNL) 53-55N 012-17E 46M
Apr 16, 2021 - 10:20 PM EDT / 2021.04.17 0220 UTC
Wind: from the NNW (330 degrees) at 6 MPH (5 KT):0
Visibility: greater than 7 mile(s):0
Sky conditions: mostly cloudy
Temperature: 42 F (6 C)
Dew Point: 33 F (1 C)
Relative Humidity: 70%
Pressure (altimeter): 30.21 in. Hg (1023 hPa)
ob: ETNL 170220Z 33005KT 9999 FEW060 BKN080 06/01 Q1023 BLU
cycle: 2

Station Type Date Time Source
ETNL TAF 2020/10/28 18:00 UTC NOAA

TAF ETNL 281710Z 2818/2906 20007KT 9999 NSW FEW030 BKN120
TEMPO 2818/2821 19010G20KT 4000 SHRA BKN010TCU
TEMPO 2821/2906 19010G20KT 3000 SHRA BKN010CB BY ETGL

Example: see airport list